Time;durP1;ratioP1;P1;durP2;ratioP2;P2;SDS_P1;SDS_P2;PMS_P1;PMS_P2;Temp;Humidity;BMP_temperature;BMP_pressure;BME280_temperature;BME280_humidity;BME280_pressure;Samples;Min_cycle;Max_cycle;Signal;HPM_P1;HPM_P2
2023/06/02 00:01:57;;;;;;;;;20.20;19.80;;;;;19.57;52.47;99031.22;5048587;28;8860;-78
2023/06/02 00:04:26;;;;;;;;;17.80;17.80;;;;;19.59;52.40;99035.47;5055324;28;8966;-79
2023/06/02 00:07:00;;;;;;;;;18.40;17.40;;;;;19.60;52.44;99034.53;5088668;28;8870;-78
2023/06/02 00:09:29;;;;;;;;;16.60;14.80;;;;;19.57;52.45;99029.38;5088946;28;8820;-79
2023/06/02 00:11:58;;;;;;;;;16.60;16.60;;;;;19.55;52.47;99025.13;5052104;28;8872;-78
2023/06/02 00:14:27;;;;;;;;;22.60;19.20;;;;;19.47;52.94;99025.59;5069984;28;8887;-77
2023/06/02 00:17:00;;;;;;;;;22.40;21.60;;;;;19.43;53.12;99016.09;5088216;28;8881;-78
2023/06/02 00:19:32;;;;;;;;;18.60;18.60;;;;;19.49;53.00;99015.69;5087988;28;8810;-78
2023/06/02 00:22:05;;;;;;;;;20.20;20.20;;;;;19.55;52.94;99022.47;5088092;28;8940;-76
2023/06/02 00:24:34;;;;;;;;;18.20;17.60;;;;;19.55;53.17;99017.13;5053499;28;9577;-78
2023/06/02 00:27:03;;;;;;;;;19.60;18.80;;;;;19.55;53.01;99020.63;5086721;28;8853;-77
2023/06/02 00:29:32;;;;;;;;;22.80;21.00;;;;;19.16;54.59;99016.09;5086636;28;8864;-77
2023/06/02 00:32:01;;;;;;;;;25.20;22.60;;;;;19.01;55.15;99018.81;5068032;28;8858;-77
2023/06/02 00:34:30;;;;;;;;;23.80;23.80;;;;;18.42;57.19;99018.06;5066192;28;8853;-77
2023/06/02 00:36:59;;;;;;;;;22.00;21.60;;;;;18.61;56.54;99023.97;5072651;28;8863;-78
2023/06/02 00:39:29;;;;;;;;;25.80;24.60;;;;;18.87;55.61;99024.16;5086135;28;8859;-78
2023/06/02 00:41:58;;;;;;;;;26.20;26.00;;;;;18.85;55.72;99026.06;5086780;28;8865;-79
2023/06/02 00:44:27;;;;;;;;;18.80;18.00;;;;;18.33;57.48;99022.19;5069183;28;8896;-77
2023/06/02 00:46:56;;;;;;;;;30.40;28.60;;;;;18.22;58.09;99019.31;5019794;28;8965;-78
2023/06/02 00:49:25;;;;;;;;;26.60;25.80;;;;;18.53;56.84;99020.94;5086232;28;8874;-77
2023/06/02 00:51:55;;;;;;;;;27.00;26.40;;;;;18.69;56.56;99016.34;5086137;28;8875;-78
2023/06/02 00:54:24;;;;;;;;;25.60;24.40;;;;;18.86;56.00;99011.81;5069492;28;8831;-77
2023/06/02 00:56:54;;;;;;;;;30.60;28.20;;;;;19.00;55.72;99001.09;5086143;28;9657;-77
2023/06/02 00:59:23;;;;;;;;;32.80;30.60;;;;;19.10;55.42;99010.22;5087992;28;8833;-78
2023/06/02 01:01:53;;;;;;;;;30.00;28.80;;;;;19.21;55.34;99011.31;5039836;28;8855;-77
2023/06/02 01:04:22;;;;;;;;;34.25;32.50;;;;;19.29;55.05;99009.88;5090581;28;8836;-77
2023/06/02 01:06:52;;;;;;;;;28.00;24.20;;;;;19.26;55.02;99007.41;5091698;28;8928;-77
2023/06/02 01:09:21;;;;;;;;;28.40;28.00;;;;;19.29;54.95;99012.53;5039653;28;8856;-77
2023/06/02 01:11:51;;;;;;;;;26.00;26.00;;;;;19.31;55.13;99010.63;5088783;28;8841;-79
2023/06/02 01:14:22;;;;;;;;;27.60;25.80;;;;;19.38;54.76;99005.72;5090549;28;8853;-77
2023/06/02 01:16:51;;;;;;;;;31.60;30.40;;;;;19.42;54.70;99004.56;5089977;28;8943;-77
2023/06/02 01:19:21;;;;;;;;;27.60;26.40;;;;;19.46;54.36;99006.09;5091582;28;8860;-76
2023/06/02 01:21:59;;;;;;;;;27.40;26.80;;;;;19.51;54.47;99012.00;5091360;28;8879;-77
2023/06/02 01:24:38;;;;;;;;;29.20;27.80;;;;;19.63;54.06;99005.00;5108345;28;8851;-79
2023/06/02 01:27:07;;;;;;;;;30.60;29.40;;;;;19.54;54.14;99005.63;5074297;28;8869;-77
2023/06/02 01:29:37;;;;;;;;;29.40;28.60;;;;;19.59;54.09;99010.63;5071481;28;8863;-78
2023/06/02 01:32:11;;;;;;;;;25.40;25.40;;;;;19.58;54.23;99012.44;5088280;28;8885;-78
2023/06/02 01:34:45;;;;;;;;;21.00;21.00;;;;;19.58;54.01;99008.94;5022253;28;8846;-78
2023/06/02 01:37:20;;;;;;;;;28.00;27.80;;;;;19.56;54.31;99008.19;5072052;28;8861;-78
2023/06/02 01:39:51;;;;;;;;;25.00;24.20;;;;;19.55;54.18;98998.47;5054634;28;8884;-78
2023/06/02 01:42:21;;;;;;;;;25.20;24.60;;;;;19.54;54.09;98996.75;5084671;28;8894;-77
2023/06/02 01:44:51;;;;;;;;;23.80;23.00;;;;;19.54;54.30;98994.97;5021896;28;8873;-78
2023/06/02 01:47:21;;;;;;;;;19.60;18.60;;;;;19.52;53.95;98994.22;4992050;28;8851;-76
2023/06/02 01:49:50;;;;;;;;;27.40;26.40;;;;;19.51;54.21;98996.00;5076784;28;8893;-77
2023/06/02 01:52:19;;;;;;;;;26.20;24.80;;;;;19.54;53.97;98992.28;5073879;28;8847;-76
2023/06/02 01:54:51;;;;;;;;;29.80;25.00;;;;;19.54;53.88;99000.28;5055671;28;8831;-77
2023/06/02 01:57:20;;;;;;;;;26.40;23.60;;;;;19.51;53.93;98989.78;5069937;28;8885;-77
2023/06/02 01:59:49;;;;;;;;;25.20;24.80;;;;;19.40;54.22;98993.16;5071591;28;9646;-76
2023/06/02 02:02:17;;;;;;;;;27.20;25.60;;;;;19.14;55.01;98986.91;5089764;28;8855;-76
2023/06/02 02:04:46;;;;;;;;;27.40;25.80;;;;;19.08;55.19;98992.63;5090969;28;8906;-77
2023/06/02 02:07:19;;;;;;;;;32.20;31.80;;;;;18.97;55.66;98984.47;5089286;28;8863;-79
2023/06/02 02:09:49;;;;;;;;;32.80;28.40;;;;;18.72;56.51;98994.88;5090359;28;8924;-76
2023/06/02 02:12:18;;;;;;;;;31.00;28.60;;;;;18.44;57.64;98992.22;5087485;28;8856;-77
2023/06/02 02:14:51;;;;;;;;;33.40;31.60;;;;;18.15;58.51;98986.91;5089335;28;8836;-77
2023/06/02 02:17:25;;;;;;;;;31.00;29.00;;;;;18.44;57.46;98986.91;5072420;28;8844;-77
2023/06/02 02:19:55;;;;;;;;;26.80;25.00;;;;;18.45;57.44;98993.94;5090160;28;8852;-77
2023/06/02 02:22:24;;;;;;;;;27.60;24.40;;;;;18.52;57.25;98990.81;5090469;28;9602;-77
2023/06/02 02:24:54;;;;;;;;;26.80;25.00;;;;;18.65;56.89;98988.22;5054345;28;8994;-76
2023/06/02 02:27:23;;;;;;;;;30.00;29.60;;;;;18.60;56.99;98982.34;5035894;28;8926;-77
2023/06/02 02:29:52;;;;;;;;;31.20;26.20;;;;;18.71;56.45;98979.84;5090842;28;8856;-78
2023/06/02 02:32:21;;;;;;;;;29.20;29.20;;;;;18.74;56.63;98979.66;5038463;28;8855;-77
2023/06/02 02:34:50;;;;;;;;;33.00;31.60;;;;;18.71;56.55;98979.84;5072190;28;8886;-77
2023/06/02 02:37:20;;;;;;;;;29.80;28.00;;;;;18.71;56.54;98979.84;5034858;28;8964;-77
2023/06/02 02:40:02;;;;;;;;;29.20;26.20;;;;;18.71;56.59;98971.84;5067880;28;8996;-77
2023/06/02 02:42:33;;;;;;;;;32.40;28.60;;;;;18.62;56.92;98975.09;5050488;28;8974;-77
2023/06/02 02:45:03;;;;;;;;;24.40;24.20;;;;;18.52;57.42;98972.16;5049843;28;8832;-77
2023/06/02 02:47:34;;;;;;;;;26.60;26.60;;;;;18.65;56.85;98979.41;5064988;28;8895;-78
2023/06/02 02:50:03;;;;;;;;;32.80;30.00;;;;;18.74;56.53;98976.13;5048012;28;8857;-77
2023/06/02 02:52:33;;;;;;;;;28.00;28.00;;;;;18.72;56.37;98978.03;5048257;28;8895;-77
2023/06/02 02:55:03;;;;;;;;;29.00;28.20;;;;;18.66;56.39;98971.28;5047787;28;8841;-77
2023/06/02 02:57:32;;;;;;;;;23.80;23.60;;;;;18.67;56.47;98975.66;5066680;28;8876;-78
2023/06/02 03:00:02;;;;;;;;;27.20;26.40;;;;;18.54;56.62;98975.59;5047665;28;8853;-77
2023/06/02 03:02:33;;;;;;;;;28.20;28.00;;;;;18.61;56.48;98973.41;5016141;28;8958;-77
2023/06/02 03:05:03;;;;;;;;;26.60;26.40;;;;;18.64;56.33;98975.00;5049933;28;8837;-77
2023/06/02 03:07:32;;;;;;;;;29.40;26.80;;;;;18.61;56.29;98973.41;5068035;28;8850;-77
2023/06/02 03:10:03;;;;;;;;;33.20;30.40;;;;;18.41;57.05;98977.31;5068271;28;8898;-81
2023/06/02 03:12:34;;;;;;;;;34.20;32.40;;;;;18.01;58.70;98979.75;5047525;28;8820;-77
2023/06/02 03:15:04;;;;;;;;;34.60;33.40;;;;;17.71;59.88;98985.97;5051377;28;8843;-79
2023/06/02 03:17:34;;;;;;;;;26.60;25.60;;;;;17.16;62.09;98992.66;5068109;28;8846;-78
2023/06/02 03:20:08;;;;;;;;;29.60;29.00;;;;;17.34;61.64;98987.25;5067431;28;8858;-79
2023/06/02 03:22:39;;;;;;;;;29.60;28.80;;;;;17.30;61.51;98983.91;5067429;28;8959;-77
2023/06/02 03:25:10;;;;;;;;;29.60;26.00;;;;;17.25;61.95;98983.34;5064688;28;8847;-77
2023/06/02 03:27:40;;;;;;;;;28.80;28.00;;;;;17.53;60.79;98990.56;5078873;28;8861;-77
2023/06/02 03:30:09;;;;;;;;;29.00;26.40;;;;;17.75;60.14;98989.28;5050746;28;8862;-78
2023/06/02 03:32:39;;;;;;;;;35.00;29.60;;;;;17.97;59.34;98989.72;5033791;28;8854;-78
2023/06/02 03:35:10;;;;;;;;;27.80;27.20;;;;;18.12;59.02;98987.97;5069239;28;9682;-79
2023/06/02 03:37:41;;;;;;;;;32.00;30.80;;;;;18.28;58.34;98990.53;5085927;28;8861;-78
2023/06/02 03:40:12;;;;;;;;;25.00;24.40;;;;;18.44;58.11;98995.75;5018679;28;8896;-77
2023/06/02 03:42:41;;;;;;;;;36.40;34.20;;;;;18.50;57.64;98990.03;5083595;28;8861;-76
2023/06/02 03:45:12;;;;;;;;;36.75;33.75;;;;;18.54;57.65;98994.22;5052162;28;8899;-77
2023/06/02 03:47:42;;;;;;;;;35.00;32.25;;;;;18.58;57.54;98997.53;5069039;28;8869;-78
2023/06/02 03:50:14;;;;;;;;;36.50;33.00;;;;;18.68;57.22;98985.34;5085663;28;8857;-78
2023/06/02 03:52:43;;;;;;;;;27.80;27.40;;;;;18.78;56.94;98992.75;5036053;28;8862;-78
2023/06/02 03:55:13;;;;;;;;;29.80;29.80;;;;;18.86;56.63;98994.03;5067509;28;8910;-78
2023/06/02 03:57:44;;;;;;;;;25.60;25.60;;;;;18.93;56.21;98991.78;5050612;28;9675;-77
2023/06/02 04:00:13;;;;;;;;;29.20;27.80;;;;;18.99;56.27;98987.88;5085633;28;8900;-77
2023/06/02 04:02:42;;;;;;;;;30.60;29.80;;;;;19.06;56.16;98990.03;5035303;28;8867;-76
2023/06/02 04:05:16;;;;;;;;;35.25;33.50;;;;;19.11;56.06;98992.44;5067888;28;8850;-79
2023/06/02 04:07:46;;;;;;;;;35.80;33.20;;;;;19.20;55.73;98991.81;5085482;28;10223;-78
2023/06/02 04:10:17;;;;;;;;;32.40;30.40;;;;;19.26;55.88;98985.25;5050207;28;8867;-79
2023/06/02 04:12:46;;;;;;;;;30.20;29.80;;;;;19.37;55.32;98984.53;5050790;28;8863;-79
2023/06/02 04:15:16;;;;;;;;;45.00;36.75;;;;;19.47;55.20;98988.28;5067201;28;8854;-79
2023/06/02 04:17:45;;;;;;;;;45.75;39.50;;;;;19.54;55.04;98988.75;5068129;28;8974;-79
2023/06/02 04:20:14;;;;;;;;;46.50;39.75;;;;;19.60;55.15;98989.19;5066880;28;8873;-79
2023/06/02 04:22:46;;;;;;;;;37.75;35.25;;;;;19.67;54.73;98987.00;5067191;28;8888;-78
2023/06/02 04:25:17;;;;;;;;;35.00;32.00;;;;;19.76;55.29;98991.66;5051421;28;8861;-78
2023/06/02 04:27:46;;;;;;;;;38.50;31.25;;;;;19.89;55.17;98997.03;5076911;28;8855;-80
2023/06/02 04:30:15;;;;;;;;;31.00;30.40;;;;;19.99;54.65;98990.13;5091603;28;8880;-78
2023/06/02 04:32:44;;;;;;;;;29.20;28.60;;;;;20.13;54.21;98996.31;5035249;28;8851;-79
2023/06/02 04:35:13;;;;;;;;;34.60;31.80;;;;;20.26;54.02;98995.38;5092866;28;8870;-78
2023/06/02 04:37:46;;;;;;;;;37.80;32.40;;;;;20.37;53.86;98997.28;5070010;28;8867;-78
2023/06/02 04:40:17;;;;;;;;;36.25;31.75;;;;;20.54;53.19;99006.78;5086106;28;8847;-78
2023/06/02 04:42:46;;;;;;;;;33.75;31.50;;;;;20.46;52.72;99001.97;5086202;28;8931;-79
2023/06/02 04:45:16;;;;;;;;;32.25;31.25;;;;;20.58;53.30;99002.91;5086046;28;8942;-80
2023/06/02 04:47:48;;;;;;;;;37.00;33.50;;;;;20.55;52.71;99005.78;5086264;28;8859;-79
2023/06/02 04:50:17;;;;;;;;;46.00;38.50;;;;;20.68;52.60;98995.94;5066427;28;8974;-79
2023/06/02 04:52:46;;;;;;;;;47.50;39.75;;;;;20.82;52.17;99000.31;5083025;28;9009;-80
2023/06/02 04:55:18;;;;;;;;;44.00;37.75;;;;;20.97;52.06;99002.84;5049814;28;9618;-79
2023/06/02 04:57:50;;;;;;;;;45.50;38.00;;;;;21.17;51.41;99001.41;5069339;28;9464;-81
2023/06/02 05:00:20;;;;;;;;;29.80;29.20;;;;;21.13;50.24;99000.75;5087848;28;8893;-79
2023/06/02 05:02:50;;;;;;;;;16.60;16.60;;;;;21.18;49.74;98993.28;5069091;28;8851;-81
2023/06/02 05:05:20;;;;;;;;;23.00;21.20;;;;;21.00;49.92;98999.97;5068354;28;8838;-79
2023/06/02 05:07:48;;;;;;;;;24.60;23.40;;;;;20.81;50.71;99005.75;5082740;28;8862;-81
2023/06/02 05:10:19;;;;;;;;;24.00;22.80;;;;;21.10;50.20;99000.97;5067448;28;8858;-80
2023/06/02 05:12:49;;;;;;;;;21.40;20.40;;;;;21.41;49.70;98996.91;5050160;28;8871;-78
2023/06/02 05:15:19;;;;;;;;;23.40;22.00;;;;;21.71;49.44;98992.03;5051229;28;8852;-80
2023/06/02 05:17:48;;;;;;;;;27.80;26.80;;;;;21.68;48.74;98986.94;5067729;28;8891;-80
2023/06/02 05:20:21;;;;;;;;;22.00;21.20;;;;;20.76;50.39;98998.06;5086210;28;8856;-80
2023/06/02 05:22:51;;;;;;;;;19.40;19.40;;;;;19.96;53.36;98998.31;5070119;28;8854;-79
2023/06/02 05:25:22;;;;;;;;;25.40;23.00;;;;;19.71;54.99;98996.47;5100632;28;8948;-78
2023/06/02 05:27:50;;;;;;;;;22.40;21.60;;;;;19.79;54.31;98994.13;5087143;28;8852;-79
2023/06/02 05:30:20;;;;;;;;;28.80;28.80;;;;;19.88;54.07;98998.00;5082886;28;8879;-78
2023/06/02 05:32:49;;;;;;;;;27.80;25.80;;;;;19.84;54.44;99005.34;5065236;28;9604;-79
2023/06/02 05:35:18;;;;;;;;;23.20;23.20;;;;;19.96;54.32;99011.66;5065085;28;8866;-78
2023/06/02 05:37:47;;;;;;;;;21.20;21.20;;;;;20.14;54.08;99006.00;5081768;28;8877;-78
2023/06/02 05:40:18;;;;;;;;;22.60;20.20;;;;;20.79;52.80;99002.34;5067069;28;8853;-82
2023/06/02 05:42:48;;;;;;;;;17.60;17.60;;;;;20.94;50.65;99008.44;5086955;28;8861;-78
2023/06/02 05:45:19;;;;;;;;;22.60;22.20;;;;;21.31;49.81;99003.88;5085578;28;8919;-79
2023/06/02 05:47:50;;;;;;;;;55.50;44.50;;;;;21.56;49.40;99004.72;5065555;28;8848;-78
2023/06/02 05:50:20;;;;;;;;;51.50;42.50;;;;;22.04;49.03;99010.00;5047771;28;8993;-79
2023/06/02 05:52:50;;;;;;;;;28.60;28.00;;;;;22.35;47.55;99010.31;5053066;28;8846;-80
2023/06/02 05:55:19;;;;;;;;;30.40;28.40;;;;;22.56;46.57;99003.28;5066398;28;8870;-78
2023/06/02 05:57:52;;;;;;;;;17.80;17.80;;;;;22.94;46.00;99006.53;5065858;28;8854;-74
2023/06/02 06:00:22;;;;;;;;;32.80;29.00;;;;;23.37;45.28;98997.63;5054650;28;8873;-75
2023/06/02 06:02:51;;;;;;;;;20.20;19.40;;;;;23.68;44.33;99004.00;5083411;28;8840;-74
2023/06/02 06:05:27;;;;;;;;;22.40;21.40;;;;;23.95;43.83;99000.81;5058413;28;8852;-78
2023/06/02 06:07:55;;;;;;;;;17.40;17.40;;;;;24.17;43.16;99004.38;5071797;28;9476;-75
2023/06/02 06:10:25;;;;;;;;;19.40;19.40;;;;;24.30;42.93;99005.00;5035393;28;8876;-74
2023/06/02 06:12:55;;;;;;;;;20.40;18.20;;;;;24.47;42.77;99006.22;5077612;28;8866;-75
2023/06/02 06:15:25;;;;;;;;;18.00;17.40;;;;;24.65;42.20;99008.25;5077258;28;8836;-79
2023/06/02 06:17:54;;;;;;;;;16.60;14.60;;;;;24.76;41.58;99005.50;5088155;28;8881;-75
2023/06/02 06:20:24;;;;;;;;;22.60;22.60;;;;;24.48;42.47;99007.91;5071986;28;8875;-75
2023/06/02 06:22:52;;;;;;;;;20.20;20.20;;;;;23.88;43.42;99006.81;5068176;28;8878;-76
2023/06/02 06:25:25;;;;;;;;;23.60;23.60;;;;;24.11;43.59;99003.03;5082154;28;8988;-73
2023/06/02 06:27:56;;;;;;;;;25.00;24.00;;;;;23.88;44.30;99012.19;5058331;28;8842;-75
2023/06/02 06:30:27;;;;;;;;;29.00;26.60;;;;;23.58;44.55;99019.16;5104583;28;8859;-78
2023/06/02 06:33:00;;;;;;;;;21.60;21.60;;;;;24.02;44.09;99011.88;5074592;28;8874;-76
2023/06/02 06:35:31;;;;;;;;;23.00;21.60;;;;;24.27;42.91;99013.31;5086570;28;8912;-76
2023/06/02 06:38:04;;;;;;;;;27.80;27.40;;;;;24.34;42.55;99009.13;5097652;28;8858;-79
2023/06/02 06:40:33;;;;;;;;;30.20;29.40;;;;;24.33;43.17;99014.63;5068635;28;8949;-73
2023/06/02 06:43:03;;;;;;;;;15.80;15.20;;;;;24.58;43.16;99017.84;5087250;28;8899;-75
2023/06/02 06:46:00;;;;;;;;;26.60;26.60;;;;;24.09;43.50;99014.88;5087787;28;9604;-75
2023/06/02 06:48:29;;;;;;;;;30.50;28.50;;;;;24.21;43.20;99007.66;5088780;28;8947;-75
2023/06/02 06:50:59;;;;;;;;;23.60;22.20;;;;;24.34;42.56;99001.06;5088629;28;8982;-75
2023/06/02 06:53:28;;;;;;;;;27.60;27.00;;;;;24.53;42.43;99012.88;5089600;28;8878;-74
2023/06/02 06:55:57;;;;;;;;;24.80;23.40;;;;;24.77;42.24;99007.19;5084078;28;8976;-74
2023/06/02 06:58:27;;;;;;;;;28.00;24.00;;;;;24.95;41.90;99007.38;5086934;28;8825;-75
2023/06/02 07:00:56;;;;;;;;;24.00;24.00;;;;;25.16;41.27;99014.50;5088568;28;8835;-73
2023/06/02 07:03:24;;;;;;;;;24.00;22.80;;;;;25.21;41.10;99006.84;5065875;28;8816;-81
2023/06/02 07:05:54;;;;;;;;;25.00;23.40;;;;;25.34;40.36;99009.31;5070147;28;8881;-79
2023/06/02 07:08:23;;;;;;;;;23.20;23.00;;;;;25.46;40.71;99006.34;5083891;28;8842;-82
2023/06/02 07:10:51;;;;;;;;;22.80;22.80;;;;;25.66;40.38;99004.53;5087136;28;8852;-80
2023/06/02 07:13:20;;;;;;;;;23.80;23.80;;;;;25.88;39.54;98999.81;5087222;28;9663;-81
2023/06/02 07:15:51;;;;;;;;;25.20;22.40;;;;;26.04;39.44;99004.63;5088133;28;8868;-82
2023/06/02 07:18:20;;;;;;;;;23.20;23.20;;;;;26.25;39.06;99002.59;5087921;28;8847;-82
2023/06/02 07:20:50;;;;;;;;;25.20;25.20;;;;;26.34;38.50;99005.38;5082212;28;8843;-80
2023/06/02 07:23:18;;;;;;;;;27.00;26.80;;;;;26.41;38.30;99007.34;5069188;28;8925;-81
2023/06/02 07:25:47;;;;;;;;;24.20;21.40;;;;;26.43;38.00;99008.03;5082712;28;8948;-80
2023/06/02 07:28:16;;;;;;;;;22.20;21.40;;;;;26.64;38.06;99010.53;5087426;28;8872;-82
2023/06/02 07:31:06;;;;;;;;;23.80;23.40;;;;;26.82;38.19;99005.22;5089761;28;8874;-80
2023/06/02 07:33:38;;;;;;;;;24.40;24.40;;;;;27.02;37.72;99006.00;5032586;28;8874;-80
2023/06/02 07:36:08;;;;;;;;;18.60;18.60;;;;;27.21;36.96;99012.25;5052728;28;8956;-80
2023/06/02 07:38:36;;;;;;;;;24.00;23.60;;;;;27.35;37.36;99003.63;5087313;28;8868;-81
2023/06/02 07:41:05;;;;;;;;;22.40;22.20;;;;;27.42;37.12;99014.63;5076309;28;8854;-81
2023/06/02 07:43:34;;;;;;;;;24.80;24.40;;;;;27.53;36.84;99013.56;5065507;28;8858;-81
2023/06/02 07:46:03;;;;;;;;;27.80;27.40;;;;;27.63;36.33;99009.81;5075675;28;9644;-79
2023/06/02 07:48:34;;;;;;;;;29.50;27.50;;;;;27.66;36.18;99002.41;5067396;28;8873;-79
2023/06/02 07:51:04;;;;;;;;;28.25;28.00;;;;;27.60;36.60;99004.72;5091568;28;8844;-80
2023/06/02 07:53:32;;;;;;;;;32.50;30.50;;;;;27.37;36.22;99007.03;5039845;28;8835;-79
2023/06/02 07:56:02;;;;;;;;;24.00;24.00;;;;;27.11;36.69;99006.91;5088743;28;8886;-81
2023/06/02 07:58:31;;;;;;;;;30.25;28.50;;;;;26.83;37.44;99004.22;5088160;28;8870;-81
2023/06/02 08:01:00;;;;;;;;;28.75;27.00;;;;;25.92;39.81;99003.94;5085026;28;8854;-78
2023/06/02 08:03:28;;;;;;;;;32.00;30.25;;;;;26.21;39.63;99003.88;5070098;28;8870;-81
2023/06/02 08:05:59;;;;;;;;;39.75;33.25;;;;;25.82;40.01;99011.16;5068904;28;8827;-82
2023/06/02 08:08:28;;;;;;;;;27.50;26.50;;;;;25.75;40.22;99018.09;5088760;28;8994;-82
2023/06/02 08:10:57;;;;;;;;;39.00;34.50;;;;;24.49;42.57;99006.94;5047956;28;8862;-80
2023/06/02 08:13:27;;;;;;;;;35.25;32.00;;;;;24.12;43.86;99018.16;5081784;28;9488;-81
2023/06/02 08:15:57;;;;;;;;;28.75;28.50;;;;;23.01;46.56;99015.78;5083044;28;8858;-83
2023/06/02 08:18:30;;;;;;;;;31.75;30.25;;;;;23.18;46.67;99011.72;5080035;28;8883;-80
2023/06/02 08:21:00;;;;;;;;;35.75;33.25;;;;;22.90;47.66;99008.63;5039056;28;8852;-81
2023/06/02 08:23:30;;;;;;;;;34.00;32.00;;;;;22.31;49.00;99016.88;5088093;28;8856;-81
2023/06/02 08:26:00;;;;;;;;;37.75;34.00;;;;;22.70;48.14;99006.66;5069708;28;8962;-79
2023/06/02 08:28:33;;;;;;;;;36.00;33.00;;;;;22.92;47.79;99009.34;5103462;28;8875;-81
2023/06/02 08:31:03;;;;;;;;;36.50;32.75;;;;;23.62;46.31;99004.53;5087519;28;8867;-81
2023/06/02 08:33:35;;;;;;;;;36.50;32.50;;;;;24.11;44.64;99003.03;5068941;28;8889;-79
2023/06/02 08:36:06;;;;;;;;;36.25;33.25;;;;;24.12;45.23;99010.09;5085062;28;8860;-81
2023/06/02 08:38:37;;;;;;;;;31.75;30.25;;;;;23.53;46.21;99011.50;5087411;28;8880;-79
2023/06/02 08:41:11;;;;;;;;;37.00;34.00;;;;;24.08;45.46;99018.56;5052285;28;8852;-80
2023/06/02 08:43:41;;;;;;;;;27.50;26.25;;;;;24.44;44.21;99014.53;5035352;28;9662;-80
2023/06/02 08:46:14;;;;;;;;;31.20;29.60;;;;;24.89;43.96;99013.31;5080611;28;8887;-80
2023/06/02 08:48:46;;;;;;;;;30.25;29.00;;;;;25.02;43.50;99010.34;5087050;28;9014;-80
2023/06/02 08:51:21;;;;;;;;;34.00;31.50;;;;;25.35;42.73;99008.34;5079486;28;8973;-80
2023/06/02 08:53:51;;;;;;;;;31.00;29.75;;;;;25.52;42.57;99013.84;5065000;28;8902;-80
2023/06/02 08:56:20;;;;;;;;;36.25;32.75;;;;;25.62;42.10;99011.16;5077488;28;9604;-83
2023/06/02 08:58:49;;;;;;;;;31.25;30.00;;;;;25.70;42.10;99007.78;5079496;28;9764;-83
2023/06/02 09:01:18;;;;;;;;;27.25;27.25;;;;;25.86;42.88;99007.19;5086010;28;8871;-70
2023/06/02 09:03:48;;;;;;;;;32.50;31.00;;;;;25.91;47.09;99015.72;5085674;28;8871;-78
2023/06/02 09:06:20;;;;;;;;;37.00;32.00;;;;;24.73;48.03;99016.50;5068634;28;8875;-78
2023/06/02 09:08:57;;;;;;;;;36.75;33.25;;;;;22.65;54.50;99011.53;5101764;28;8852;-76
2023/06/02 09:11:27;;;;;;;;;33.75;31.50;;;;;21.67;67.40;99006.63;5040357;28;8862;-75
2023/06/02 09:13:56;;;;;;;;;38.00;33.25;;;;;21.57;70.48;99001.94;5066388;28;8882;-75
2023/06/02 09:16:37;;;;;;;;;44.75;38.00;;;;;21.61;73.36;99016.81;5067008;28;8968;-75
2023/06/02 09:19:06;;;;;;;;;50.50;42.50;;;;;21.57;74.98;99015.31;5074093;28;9672;-73
2023/06/02 09:21:37;;;;;;;;;50.75;42.50;;;;;21.62;75.97;99009.66;5089004;28;9632;-73
2023/06/02 09:24:06;;;;;;;;;48.50;40.50;;;;;21.53;74.65;99003.13;5055793;28;8918;-74
2023/06/02 09:26:38;;;;;;;;;50.50;42.25;;;;;21.24;73.62;98999.97;5081803;28;8842;-74
2023/06/02 09:29:08;;;;;;;;;50.75;42.50;;;;;20.80;73.79;98994.22;5086318;28;8866;-74
2023/06/02 09:31:45;;;;;;;;;52.50;42.50;;;;;20.65;73.08;98997.97;5083843;28;8860;-77
2023/06/02 09:34:15;;;;;;;;;57.25;45.25;;;;;20.34;74.79;99010.00;5090241;28;8851;-75
2023/06/02 09:36:48;;;;;;;;;52.25;42.75;;;;;20.09;74.92;99006.34;5088374;28;8847;-76
2023/06/02 09:39:32;;;;;;;;;44.50;37.25;;;;;20.10;74.08;98997.34;5089164;28;8986;-76
2023/06/02 09:42:01;;;;;;;;;35.50;33.00;;;;;20.01;72.94;98996.19;5070701;28;8884;-74
2023/06/02 09:44:30;;;;;;;;;31.00;30.20;;;;;19.92;72.57;99004.00;5072789;28;8889;-74
2023/06/02 09:47:02;;;;;;;;;30.80;28.80;;;;;19.93;73.59;99011.84;5085708;28;8838;-75
2023/06/02 09:49:40;;;;;;;;;22.80;22.20;;;;;19.96;72.48;99027.66;5083081;28;8860;-78
2023/06/02 09:52:15;;;;;;;;;28.60;27.20;;;;;19.98;73.57;99024.91;5090918;28;8883;-77
2023/06/02 09:54:45;;;;;;;;;25.80;25.80;;;;;19.88;73.21;99030.00;5051149;28;8874;-81
2023/06/02 09:57:15;;;;;;;;;25.80;23.40;;;;;19.76;70.27;99018.34;5067366;28;8885;-78
2023/06/02 09:59:45;;;;;;;;;35.75;31.75;;;;;19.44;70.77;99015.13;5050896;28;8838;-78
2023/06/02 10:02:14;;;;;;;;;27.60;26.80;;;;;19.11;68.98;99009.25;5050000;28;8850;-77
2023/06/02 10:04:45;;;;;;;;;18.60;16.20;;;;;18.79;67.77;99000.69;5035901;28;9591;-78
2023/06/02 10:07:31;;;;;;;;;8.80;8.60;;;;;19.03;68.66;98995.59;5071670;28;8846;-75
2023/06/02 10:10:18;;;;;;;;;10.40;10.00;;;;;19.13;70.24;98986.03;5021968;28;8962;-77
2023/06/02 10:13:04;;;;;;;;;35.50;32.75;;;;;19.23;71.71;98980.94;5072596;28;9059;-81
2023/06/02 10:15:49;;;;;;;;;15.40;14.20;;;;;19.39;72.05;98986.13;5068231;28;9733;-78
2023/06/02 10:18:43;;;;;;;;;21.00;20.00;;;;;19.57;71.62;98984.06;5064673;28;8854;-78
2023/06/02 10:21:20;;;;;;;;;18.80;18.40;;;;;19.63;71.61;98981.00;5050538;28;8982;-79
2023/06/02 10:24:00;;;;;;;;;19.60;19.60;;;;;19.76;70.43;98983.66;5105150;28;8880;-79
2023/06/02 10:26:45;;;;;;;;;23.80;18.60;;;;;19.92;71.59;98964.81;5111114;27;8849;-79
2023/06/02 10:29:16;;;;;;;;;16.80;15.80;;;;;19.82;69.59;98969.06;5104545;27;8838;-77
2023/06/02 10:31:45;;;;;;;;;17.20;16.80;;;;;19.94;70.17;98965.56;5090863;27;8849;-77
2023/06/02 10:34:38;;;;;;;;;18.00;18.00;;;;;20.28;71.28;98956.06;5060535;27;8866;-79
2023/06/02 10:37:16;;;;;;;;;17.60;17.40;;;;;20.15;65.10;98963.22;5093113;27;8854;-77
2023/06/02 10:39:54;;;;;;;;;17.80;17.80;;;;;20.29;67.19;98955.13;5084328;27;9007;-79
2023/06/02 10:42:25;;;;;;;;;17.20;16.20;;;;;20.28;68.69;98953.41;5075247;27;8875;-78
2023/06/02 10:45:32;;;;;;;;;14.80;13.60;;;;;20.41;68.81;98950.72;5113321;27;8882;-77
2023/06/02 10:48:01;;;;;;;;;13.00;13.00;;;;;20.26;68.89;98959.84;5047611;28;8922;-77
2023/06/02 10:50:53;;;;;;;;;16.40;15.20;;;;;20.63;69.37;98954.50;5089930;28;8824;-78
2023/06/02 10:53:21;;;;;;;;;15.60;14.60;;;;;20.57;67.12;98966.50;5121270;27;8958;-79
2023/06/02 10:55:52;;;;;;;;;33.20;31.40;;;;;20.43;64.06;98962.16;5071810;27;8838;-78
2023/06/02 10:58:21;;;;;;;;;29.40;29.20;;;;;20.54;68.26;98958.72;5091089;28;8901;-78
2023/06/02 11:00:52;;;;;;;;;28.00;26.00;;;;;20.78;70.23;98948.06;5054446;28;8900;-78
2023/06/02 11:03:33;;;;;;;;;22.80;22.60;;;;;21.20;70.37;98945.03;5086017;28;8928;-77
2023/06/02 11:06:19;;;;;;;;;23.60;23.40;;;;;21.49;69.72;98942.00;5085170;28;8848;-77
2023/06/02 11:08:51;;;;;;;;;22.20;22.20;;;;;21.45;69.63;98944.03;5074860;28;8870;-77
2023/06/02 11:11:54;;;;;;;;;30.20;28.60;;;;;21.82;70.72;98942.09;5084729;28;8844;-78
2023/06/02 11:14:23;;;;;;;;;25.40;25.00;;;;;21.69;67.01;98938.66;5085140;28;8981;-78
2023/06/02 11:17:31;;;;;;;;;27.60;27.00;;;;;22.10;67.71;98944.44;5068304;28;8858;-76
2023/06/02 11:20:01;;;;;;;;;23.40;22.40;;;;;22.05;67.30;98934.06;5028767;28;8997;-78
2023/06/02 11:22:30;;;;;;;;;21.40;21.00;;;;;22.19;66.53;98936.53;5028872;28;8849;-77
2023/06/02 11:25:01;;;;;;;;;33.00;30.00;;;;;22.05;65.52;98923.38;5021707;28;8888;-76
2023/06/02 11:27:40;;;;;;;;;27.40;26.00;;;;;21.91;63.52;98926.31;5044564;28;8861;-77
2023/06/02 11:30:12;;;;;;;;;25.80;25.80;;;;;21.82;66.04;98918.03;5049814;28;9031;-76
2023/06/02 11:32:42;;;;;;;;;28.20;25.40;;;;;21.76;65.93;98910.47;5045849;28;9061;-77
2023/06/02 11:35:12;;;;;;;;;36.40;32.20;;;;;21.96;66.84;98895.53;5028630;28;8880;-79
2023/06/02 11:37:43;;;;;;;;;28.00;28.00;;;;;22.18;67.46;98888.47;5028928;28;8902;-78
2023/06/02 11:40:13;;;;;;;;;26.20;26.00;;;;;22.33;65.11;98889.94;5062732;28;10088;-76
2023/06/02 11:42:45;;;;;;;;;31.80;28.60;;;;;20.96;61.39;98897.81;5065309;28;8834;-76
2023/06/02 11:45:21;;;;;;;;;42.25;37.00;;;;;20.67;66.88;98895.44;5063759;28;8862;-78